sensor_id;sensor_type;location;lat;lon;timestamp;temperature;humidity
76291;DHT22;65100;46.884;17.410;2023-08-08T00:00:06;12.54;84.34
76291;DHT22;65100;46.884;17.410;2023-08-08T00:02:31;12.65;84.74
76291;DHT22;65100;46.884;17.410;2023-08-08T00:04:57;12.57;84.98
76291;DHT22;65100;46.884;17.410;2023-08-08T00:07:22;12.61;84.92
76291;DHT22;65100;46.884;17.410;2023-08-08T00:09:48;12.77;84.40
76291;DHT22;65100;46.884;17.410;2023-08-08T00:12:14;12.58;85.67
76291;DHT22;65100;46.884;17.410;2023-08-08T00:14:39;12.98;84.50
76291;DHT22;65100;46.884;17.410;2023-08-08T00:17:05;12.84;84.91
76291;DHT22;65100;46.884;17.410;2023-08-08T00:19:30;12.64;86.61
76291;DHT22;65100;46.884;17.410;2023-08-08T00:21:55;12.74;86.53
76291;DHT22;65100;46.884;17.410;2023-08-08T00:24:21;12.90;86.57
76291;DHT22;65100;46.884;17.410;2023-08-08T00:26:46;12.94;85.82
76291;DHT22;65100;46.884;17.410;2023-08-08T00:29:12;13.19;84.83
76291;DHT22;65100;46.884;17.410;2023-08-08T00:31:37;13.32;84.71
76291;DHT22;65100;46.884;17.410;2023-08-08T00:34:03;13.66;84.04
76291;DHT22;65100;46.884;17.410;2023-08-08T00:36:28;13.70;83.52
76291;DHT22;65100;46.884;17.410;2023-08-08T00:38:54;13.87;82.93
76291;DHT22;65100;46.884;17.410;2023-08-08T00:41:19;13.95;82.26
76291;DHT22;65100;46.884;17.410;2023-08-08T00:43:44;14.06;82.05
76291;DHT22;65100;46.884;17.410;2023-08-08T00:46:11;13.90;82.41
76291;DHT22;65100;46.884;17.410;2023-08-08T00:48:36;13.85;83.30
76291;DHT22;65100;46.884;17.410;2023-08-08T00:51:02;13.77;83.23
76291;DHT22;65100;46.884;17.410;2023-08-08T00:53:29;13.51;84.24
76291;DHT22;65100;46.884;17.410;2023-08-08T00:55:57;13.44;84.65
76291;DHT22;65100;46.884;17.410;2023-08-08T00:58:23;13.75;82.94
76291;DHT22;65100;46.884;17.410;2023-08-08T01:00:49;13.75;82.88
76291;DHT22;65100;46.884;17.410;2023-08-08T01:03:14;13.62;84.19
76291;DHT22;65100;46.884;17.410;2023-08-08T01:05:48;13.61;84.68
76291;DHT22;65100;46.884;17.410;2023-08-08T01:08:21;13.58;85.45
76291;DHT22;65100;46.884;17.410;2023-08-08T01:10:48;13.59;85.90
76291;DHT22;65100;46.884;17.410;2023-08-08T01:13:17;13.67;85.46
76291;DHT22;65100;46.884;17.410;2023-08-08T01:15:44;13.63;85.26
76291;DHT22;65100;46.884;17.410;2023-08-08T01:18:11;13.66;84.98
76291;DHT22;65100;46.884;17.410;2023-08-08T01:20:40;13.55;85.17
76291;DHT22;65100;46.884;17.410;2023-08-08T01:25:37;13.58;84.79
76291;DHT22;65100;46.884;17.410;2023-08-08T01:28:03;13.51;85.22
76291;DHT22;65100;46.884;17.410;2023-08-08T01:30:30;13.21;86.45
76291;DHT22;65100;46.884;17.410;2023-08-08T01:32:55;13.31;85.82
76291;DHT22;65100;46.884;17.410;2023-08-08T01:35:21;13.32;86.28
76291;DHT22;65100;46.884;17.410;2023-08-08T01:37:52;13.44;86.98
76291;DHT22;65100;46.884;17.410;2023-08-08T01:40:19;13.66;85.44
76291;DHT22;65100;46.884;17.410;2023-08-08T01:42:47;13.69;85.18
76291;DHT22;65100;46.884;17.410;2023-08-08T01:45:14;13.52;86.04
76291;DHT22;65100;46.884;17.410;2023-08-08T01:47:40;13.62;85.00
76291;DHT22;65100;46.884;17.410;2023-08-08T01:50:07;13.76;85.05
76291;DHT22;65100;46.884;17.410;2023-08-08T01:52:34;13.85;84.81
76291;DHT22;65100;46.884;17.410;2023-08-08T01:54:59;13.65;85.67
76291;DHT22;65100;46.884;17.410;2023-08-08T01:57:25;14.09;83.03
76291;DHT22;65100;46.884;17.410;2023-08-08T01:59:50;14.27;82.63
76291;DHT22;65100;46.884;17.410;2023-08-08T02:02:16;14.12;82.67
76291;DHT22;65100;46.884;17.410;2023-08-08T02:04:43;14.19;83.73
76291;DHT22;65100;46.884;17.410;2023-08-08T02:07:08;14.12;83.46
76291;DHT22;65100;46.884;17.410;2023-08-08T02:09:34;14.16;83.05
76291;DHT22;65100;46.884;17.410;2023-08-08T02:11:59;14.21;83.12
76291;DHT22;65100;46.884;17.410;2023-08-08T02:14:24;14.12;83.49
76291;DHT22;65100;46.884;17.410;2023-08-08T02:16:50;14.14;83.21
76291;DHT22;65100;46.884;17.410;2023-08-08T02:19:15;14.05;84.10
76291;DHT22;65100;46.884;17.410;2023-08-08T02:21:41;14.17;83.57
76291;DHT22;65100;46.884;17.410;2023-08-08T02:24:06;14.09;83.74
76291;DHT22;65100;46.884;17.410;2023-08-08T02:26:32;14.12;83.29
76291;DHT22;65100;46.884;17.410;2023-08-08T02:28:57;13.89;84.62
76291;DHT22;65100;46.884;17.410;2023-08-08T02:31:23;14.02;84.17
76291;DHT22;65100;46.884;17.410;2023-08-08T02:33:49;14.06;84.08
76291;DHT22;65100;46.884;17.410;2023-08-08T02:36:15;14.08;84.02
76291;DHT22;65100;46.884;17.410;2023-08-08T02:38:41;14.12;83.68
76291;DHT22;65100;46.884;17.410;2023-08-08T02:41:06;13.99;84.73
76291;DHT22;65100;46.884;17.410;2023-08-08T02:43:32;14.16;84.42
76291;DHT22;65100;46.884;17.410;2023-08-08T02:45:57;14.14;84.26
76291;DHT22;65100;46.884;17.410;2023-08-08T02:48:23;14.14;84.26
76291;DHT22;65100;46.884;17.410;2023-08-08T02:50:48;13.99;84.18
76291;DHT22;65100;46.884;17.410;2023-08-08T02:53:14;13.91;84.75
76291;DHT22;65100;46.884;17.410;2023-08-08T02:55:39;14.20;83.69
76291;DHT22;65100;46.884;17.410;2023-08-08T02:58:04;13.90;84.23
76291;DHT22;65100;46.884;17.410;2023-08-08T03:00:30;14.19;84.17
76291;DHT22;65100;46.884;17.410;2023-08-08T03:02:55;13.96;84.79
76291;DHT22;65100;46.884;17.410;2023-08-08T03:05:21;14.08;84.00
76291;DHT22;65100;46.884;17.410;2023-08-08T03:07:46;14.16;84.33
76291;DHT22;65100;46.884;17.410;2023-08-08T03:10:12;13.93;85.73
76291;DHT22;65100;46.884;17.410;2023-08-08T03:12:38;13.75;86.23
76291;DHT22;65100;46.884;17.410;2023-08-08T03:15:03;14.12;84.77
76291;DHT22;65100;46.884;17.410;2023-08-08T03:17:29;14.16;84.48
76291;DHT22;65100;46.884;17.410;2023-08-08T03:19:55;14.06;84.83
76291;DHT22;65100;46.884;17.410;2023-08-08T03:22:20;14.10;84.49
76291;DHT22;65100;46.884;17.410;2023-08-08T03:24:46;13.85;85.39
76291;DHT22;65100;46.884;17.410;2023-08-08T03:27:11;14.13;84.55
76291;DHT22;65100;46.884;17.410;2023-08-08T03:29:37;14.24;84.36
76291;DHT22;65100;46.884;17.410;2023-08-08T03:32:03;14.00;83.35
76291;DHT22;65100;46.884;17.410;2023-08-08T03:34:29;14.05;84.34
76291;DHT22;65100;46.884;17.410;2023-08-08T03:36:55;13.87;83.50
76291;DHT22;65100;46.884;17.410;2023-08-08T03:39:21;13.83;83.54
76291;DHT22;65100;46.884;17.410;2023-08-08T03:41:47;13.77;82.97
76291;DHT22;65100;46.884;17.410;2023-08-08T03:44:12;13.73;83.41
76291;DHT22;65100;46.884;17.410;2023-08-08T03:46:37;13.73;82.50
76291;DHT22;65100;46.884;17.410;2023-08-08T03:49:03;13.48;83.73
76291;DHT22;65100;46.884;17.410;2023-08-08T03:51:29;13.62;83.56
76291;DHT22;65100;46.884;17.410;2023-08-08T03:53:54;13.49;83.07
76291;DHT22;65100;46.884;17.410;2023-08-08T03:56:19;13.55;83.23
76291;DHT22;65100;46.884;17.410;2023-08-08T03:58:45;13.48;83.03
76291;DHT22;65100;46.884;17.410;2023-08-08T04:01:11;13.49;83.22
76291;DHT22;65100;46.884;17.410;2023-08-08T04:03:36;13.82;82.57
76291;DHT22;65100;46.884;17.410;2023-08-08T04:06:02;14.29;80.21
76291;DHT22;65100;46.884;17.410;2023-08-08T04:08:28;14.81;78.64
76291;DHT22;65100;46.884;17.410;2023-08-08T04:10:53;15.17;76.96
76291;DHT22;65100;46.884;17.410;2023-08-08T04:13:19;15.72;75.49
76291;DHT22;65100;46.884;17.410;2023-08-08T04:15:45;16.03;74.05
76291;DHT22;65100;46.884;17.410;2023-08-08T04:18:10;16.50;72.68
76291;DHT22;65100;46.884;17.410;2023-08-08T04:20:36;16.98;71.42
76291;DHT22;65100;46.884;17.410;2023-08-08T04:23:02;17.35;69.25
76291;DHT22;65100;46.884;17.410;2023-08-08T04:25:27;17.45;68.73
76291;DHT22;65100;46.884;17.410;2023-08-08T04:27:53;16.39;71.29
76291;DHT22;65100;46.884;17.410;2023-08-08T04:30:19;16.61;71.16
76291;DHT22;65100;46.884;17.410;2023-08-08T04:32:45;17.00;71.31
76291;DHT22;65100;46.884;17.410;2023-08-08T04:35:10;16.41;71.43
76291;DHT22;65100;46.884;17.410;2023-08-08T04:37:36;16.73;70.32
76291;DHT22;65100;46.884;17.410;2023-08-08T04:40:02;17.28;69.44
76291;DHT22;65100;46.884;17.410;2023-08-08T04:42:28;17.01;69.37
76291;DHT22;65100;46.884;17.410;2023-08-08T04:44:54;16.80;71.11
76291;DHT22;65100;46.884;17.410;2023-08-08T04:47:19;16.95;70.59
76291;DHT22;65100;46.884;17.410;2023-08-08T04:49:45;18.12;67.32
76291;DHT22;65100;46.884;17.410;2023-08-08T04:52:10;17.52;67.25
76291;DHT22;65100;46.884;17.410;2023-08-08T04:54:35;18.06;66.27
76291;DHT22;65100;46.884;17.410;2023-08-08T04:57:01;18.00;66.35
76291;DHT22;65100;46.884;17.410;2023-08-08T04:59:26;18.44;65.07
76291;DHT22;65100;46.884;17.410;2023-08-08T05:01:52;17.83;67.41
76291;DHT22;65100;46.884;17.410;2023-08-08T05:04:17;18.33;68.47
76291;DHT22;65100;46.884;17.410;2023-08-08T05:06:43;18.34;69.37
76291;DHT22;65100;46.884;17.410;2023-08-08T05:09:08;18.29;67.54
76291;DHT22;65100;46.884;17.410;2023-08-08T05:11:35;18.06;66.15
76291;DHT22;65100;46.884;17.410;2023-08-08T05:14:01;17.62;68.48
76291;DHT22;65100;46.884;17.410;2023-08-08T05:16:26;17.56;68.77
76291;DHT22;65100;46.884;17.410;2023-08-08T05:18:52;17.83;70.89
76291;DHT22;65100;46.884;17.410;2023-08-08T05:21:17;17.90;67.18
76291;DHT22;65100;46.884;17.410;2023-08-08T05:23:43;17.73;68.32
76291;DHT22;65100;46.884;17.410;2023-08-08T05:26:08;17.89;67.63
76291;DHT22;65100;46.884;17.410;2023-08-08T05:28:34;18.27;66.06
76291;DHT22;65100;46.884;17.410;2023-08-08T05:30:59;18.56;64.92
76291;DHT22;65100;46.884;17.410;2023-08-08T05:33:24;18.22;66.23
76291;DHT22;65100;46.884;17.410;2023-08-08T05:35:50;18.29;66.51
76291;DHT22;65100;46.884;17.410;2023-08-08T05:38:15;18.78;65.38
76291;DHT22;65100;46.884;17.410;2023-08-08T05:40:41;18.46;65.55
76291;DHT22;65100;46.884;17.410;2023-08-08T05:43:07;18.80;64.35
76291;DHT22;65100;46.884;17.410;2023-08-08T05:45:33;18.68;66.44
76291;DHT22;65100;46.884;17.410;2023-08-08T05:47:59;18.97;63.86
76291;DHT22;65100;46.884;17.410;2023-08-08T05:50:27;18.90;65.28
76291;DHT22;65100;46.884;17.410;2023-08-08T05:52:53;18.43;66.04
76291;DHT22;65100;46.884;17.410;2023-08-08T05:55:18;17.87;69.42
76291;DHT22;65100;46.884;17.410;2023-08-08T05:57:43;18.27;69.90
76291;DHT22;65100;46.884;17.410;2023-08-08T06:00:09;19.12;68.18
76291;DHT22;65100;46.884;17.410;2023-08-08T06:02:37;19.29;69.40
76291;DHT22;65100;46.884;17.410;2023-08-08T06:05:03;19.03;68.55
76291;DHT22;65100;46.884;17.410;2023-08-08T06:07:28;19.12;68.73
76291;DHT22;65100;46.884;17.410;2023-08-08T06:09:54;20.02;64.98
76291;DHT22;65100;46.884;17.410;2023-08-08T06:12:19;20.81;60.03
76291;DHT22;65100;46.884;17.410;2023-08-08T06:14:45;21.72;57.46
76291;DHT22;65100;46.884;17.410;2023-08-08T06:17:10;21.93;52.50
76291;DHT22;65100;46.884;17.410;2023-08-08T06:19:36;22.09;55.31
76291;DHT22;65100;46.884;17.410;2023-08-08T06:22:01;22.56;53.17
76291;DHT22;65100;46.884;17.410;2023-08-08T06:24:28;22.49;50.86
76291;DHT22;65100;46.884;17.410;2023-08-08T06:26:53;21.56;54.47
76291;DHT22;65100;46.884;17.410;2023-08-08T06:29:19;21.68;53.63
76291;DHT22;65100;46.884;17.410;2023-08-08T06:31:45;21.69;53.21
76291;DHT22;65100;46.884;17.410;2023-08-08T06:34:10;21.08;57.67
76291;DHT22;65100;46.884;17.410;2023-08-08T06:36:36;20.83;56.53
76291;DHT22;65100;46.884;17.410;2023-08-08T06:39:01;20.70;59.04
76291;DHT22;65100;46.884;17.410;2023-08-08T06:41:27;20.22;59.14
76291;DHT22;65100;46.884;17.410;2023-08-08T06:43:52;20.70;59.46
76291;DHT22;65100;46.884;17.410;2023-08-08T06:46:18;20.98;59.60
76291;DHT22;65100;46.884;17.410;2023-08-08T06:48:46;20.85;58.85
76291;DHT22;65100;46.884;17.410;2023-08-08T06:51:12;20.71;61.20
76291;DHT22;65100;46.884;17.410;2023-08-08T06:53:37;20.26;62.88
76291;DHT22;65100;46.884;17.410;2023-08-08T06:56:03;21.65;58.33
76291;DHT22;65100;46.884;17.410;2023-08-08T06:58:28;22.84;55.75
76291;DHT22;65100;46.884;17.410;2023-08-08T07:00:54;23.82;52.89
76291;DHT22;65100;46.884;17.410;2023-08-08T07:03:19;23.98;50.94
76291;DHT22;65100;46.884;17.410;2023-08-08T07:05:45;23.95;53.88
76291;DHT22;65100;46.884;17.410;2023-08-08T07:08:32;23.81;53.48
76291;DHT22;65100;46.884;17.410;2023-08-08T07:11:18;24.82;50.25
76291;DHT22;65100;46.884;17.410;2023-08-08T07:13:44;24.04;52.29
76291;DHT22;65100;46.884;17.410;2023-08-08T07:16:09;23.52;52.90
76291;DHT22;65100;46.884;17.410;2023-08-08T07:18:35;24.22;52.77
76291;DHT22;65100;46.884;17.410;2023-08-08T07:21:00;25.30;49.51
76291;DHT22;65100;46.884;17.410;2023-08-08T07:23:25;25.82;48.24
76291;DHT22;65100;46.884;17.410;2023-08-08T07:25:51;25.92;46.88
76291;DHT22;65100;46.884;17.410;2023-08-08T07:28:16;26.45;46.39
76291;DHT22;65100;46.884;17.410;2023-08-08T07:30:42;26.33;45.56
76291;DHT22;65100;46.884;17.410;2023-08-08T07:33:07;27.74;43.82
76291;DHT22;65100;46.884;17.410;2023-08-08T07:35:35;27.90;41.69
76291;DHT22;65100;46.884;17.410;2023-08-08T07:38:01;27.85;41.09
76291;DHT22;65100;46.884;17.410;2023-08-08T07:40:27;28.05;41.71
76291;DHT22;65100;46.884;17.410;2023-08-08T07:42:52;28.49;39.03
76291;DHT22;65100;46.884;17.410;2023-08-08T07:45:18;28.38;35.69
76291;DHT22;65100;46.884;17.410;2023-08-08T07:47:44;27.23;40.62
76291;DHT22;65100;46.884;17.410;2023-08-08T07:50:10;26.16;39.97
76291;DHT22;65100;46.884;17.410;2023-08-08T07:52:36;27.00;39.37
76291;DHT22;65100;46.884;17.410;2023-08-08T07:55:03;28.12;37.08
76291;DHT22;65100;46.884;17.410;2023-08-08T07:57:29;28.95;33.76
76291;DHT22;65100;46.884;17.410;2023-08-08T07:59:55;29.34;34.66
76291;DHT22;65100;46.884;17.410;2023-08-08T08:02:21;28.08;35.96
76291;DHT22;65100;46.884;17.410;2023-08-08T08:04:46;27.71;35.12
76291;DHT22;65100;46.884;17.410;2023-08-08T08:07:12;28.59;35.88
76291;DHT22;65100;46.884;17.410;2023-08-08T08:09:38;28.05;33.73
76291;DHT22;65100;46.884;17.410;2023-08-08T08:12:04;27.92;34.38
76291;DHT22;65100;46.884;17.410;2023-08-08T08:14:29;27.91;33.06
76291;DHT22;65100;46.884;17.410;2023-08-08T08:16:55;27.37;35.56
76291;DHT22;65100;46.884;17.410;2023-08-08T08:19:20;26.19;38.01
76291;DHT22;65100;46.884;17.410;2023-08-08T08:21:46;25.95;37.43
76291;DHT22;65100;46.884;17.410;2023-08-08T08:24:11;26.08;39.92
76291;DHT22;65100;46.884;17.410;2023-08-08T08:26:36;25.89;40.46
76291;DHT22;65100;46.884;17.410;2023-08-08T08:29:02;25.42;41.22
76291;DHT22;65100;46.884;17.410;2023-08-08T08:31:27;24.98;42.00
76291;DHT22;65100;46.884;17.410;2023-08-08T08:33:54;25.62;40.95
76291;DHT22;65100;46.884;17.410;2023-08-08T08:36:20;25.61;40.15
76291;DHT22;65100;46.884;17.410;2023-08-08T08:38:46;25.11;42.33
76291;DHT22;65100;46.884;17.410;2023-08-08T08:41:18;25.07;41.22
76291;DHT22;65100;46.884;17.410;2023-08-08T08:43:44;24.12;43.06
76291;DHT22;65100;46.884;17.410;2023-08-08T08:46:11;24.06;43.73
76291;DHT22;65100;46.884;17.410;2023-08-08T08:48:37;23.75;43.64
76291;DHT22;65100;46.884;17.410;2023-08-08T08:51:03;24.10;45.21
76291;DHT22;65100;46.884;17.410;2023-08-08T08:53:28;24.29;41.52
76291;DHT22;65100;46.884;17.410;2023-08-08T08:55:56;23.90;40.77
76291;DHT22;65100;46.884;17.410;2023-08-08T08:58:24;23.76;40.85
76291;DHT22;65100;46.884;17.410;2023-08-08T09:00:51;23.74;41.69
76291;DHT22;65100;46.884;17.410;2023-08-08T09:03:17;24.06;41.79
76291;DHT22;65100;46.884;17.410;2023-08-08T09:05:42;23.96;41.77
76291;DHT22;65100;46.884;17.410;2023-08-08T09:08:10;23.69;41.73
76291;DHT22;65100;46.884;17.410;2023-08-08T09:10:37;23.64;43.78
76291;DHT22;65100;46.884;17.410;2023-08-08T09:13:03;23.55;45.00
76291;DHT22;65100;46.884;17.410;2023-08-08T09:15:32;23.69;46.68
76291;DHT22;65100;46.884;17.410;2023-08-08T09:17:58;23.62;43.79
76291;DHT22;65100;46.884;17.410;2023-08-08T09:20:25;23.81;44.70
76291;DHT22;65100;46.884;17.410;2023-08-08T09:22:53;23.68;45.42
76291;DHT22;65100;46.884;17.410;2023-08-08T09:25:19;23.42;47.55
76291;DHT22;65100;46.884;17.410;2023-08-08T09:27:44;23.66;47.27
76291;DHT22;65100;46.884;17.410;2023-08-08T09:30:10;23.68;48.32
76291;DHT22;65100;46.884;17.410;2023-08-08T09:32:37;23.55;42.35
76291;DHT22;65100;46.884;17.410;2023-08-08T09:35:03;23.40;47.23
76291;DHT22;65100;46.884;17.410;2023-08-08T09:37:28;22.61;52.47
76291;DHT22;65100;46.884;17.410;2023-08-08T09:40:01;23.14;48.09
76291;DHT22;65100;46.884;17.410;2023-08-08T09:42:29;22.71;48.98
76291;DHT22;65100;46.884;17.410;2023-08-08T09:44:57;23.00;48.55
76291;DHT22;65100;46.884;17.410;2023-08-08T09:47:23;22.87;51.30
76291;DHT22;65100;46.884;17.410;2023-08-08T09:49:50;22.80;49.92
76291;DHT22;65100;46.884;17.410;2023-08-08T09:52:16;22.96;49.73
76291;DHT22;65100;46.884;17.410;2023-08-08T09:54:42;22.98;50.62
76291;DHT22;65100;46.884;17.410;2023-08-08T09:57:07;23.03;49.19
76291;DHT22;65100;46.884;17.410;2023-08-08T09:59:34;23.54;46.61
76291;DHT22;65100;46.884;17.410;2023-08-08T10:02:01;23.66;45.45
76291;DHT22;65100;46.884;17.410;2023-08-08T10:04:26;23.78;43.36
76291;DHT22;65100;46.884;17.410;2023-08-08T10:06:52;23.88;42.73
76291;DHT22;65100;46.884;17.410;2023-08-08T10:09:17;24.02;42.28
76291;DHT22;65100;46.884;17.410;2023-08-08T10:11:43;23.98;45.45
76291;DHT22;65100;46.884;17.410;2023-08-08T10:14:10;23.74;48.25
76291;DHT22;65100;46.884;17.410;2023-08-08T10:16:37;24.15;45.73
76291;DHT22;65100;46.884;17.410;2023-08-08T10:19:04;24.10;47.29
76291;DHT22;65100;46.884;17.410;2023-08-08T10:21:34;23.79;44.43
76291;DHT22;65100;46.884;17.410;2023-08-08T10:24:07;23.75;45.69
76291;DHT22;65100;46.884;17.410;2023-08-08T10:26:33;23.96;47.47
76291;DHT22;65100;46.884;17.410;2023-08-08T10:29:00;23.44;48.04
76291;DHT22;65100;46.884;17.410;2023-08-08T10:31:27;23.68;48.15
76291;DHT22;65100;46.884;17.410;2023-08-08T10:34:03;23.59;47.59
76291;DHT22;65100;46.884;17.410;2023-08-08T10:36:49;23.20;45.37
76291;DHT22;65100;46.884;17.410;2023-08-08T10:39:16;23.50;46.21
76291;DHT22;65100;46.884;17.410;2023-08-08T10:41:50;23.51;45.24
76291;DHT22;65100;46.884;17.410;2023-08-08T10:44:25;23.65;44.98
76291;DHT22;65100;46.884;17.410;2023-08-08T10:46:52;23.85;43.65
76291;DHT22;65100;46.884;17.410;2023-08-08T10:49:18;24.05;43.33
76291;DHT22;65100;46.884;17.410;2023-08-08T10:51:45;24.01;43.65
76291;DHT22;65100;46.884;17.410;2023-08-08T10:54:17;24.01;42.45
76291;DHT22;65100;46.884;17.410;2023-08-08T10:56:50;24.09;45.22
76291;DHT22;65100;46.884;17.410;2023-08-08T10:59:18;23.94;43.44
76291;DHT22;65100;46.884;17.410;2023-08-08T11:01:49;23.72;44.20
76291;DHT22;65100;46.884;17.410;2023-08-08T11:04:19;23.74;46.14
76291;DHT22;65100;46.884;17.410;2023-08-08T11:06:45;23.79;43.88
76291;DHT22;65100;46.884;17.410;2023-08-08T11:09:13;23.82;46.10
76291;DHT22;65100;46.884;17.410;2023-08-08T11:11:40;24.12;43.31
76291;DHT22;65100;46.884;17.410;2023-08-08T11:14:18;24.09;46.07
76291;DHT22;65100;46.884;17.410;2023-08-08T11:16:46;24.23;43.77
76291;DHT22;65100;46.884;17.410;2023-08-08T11:19:12;23.95;43.48
76291;DHT22;65100;46.884;17.410;2023-08-08T11:21:41;23.79;43.77
76291;DHT22;65100;46.884;17.410;2023-08-08T11:24:08;23.69;44.02
76291;DHT22;65100;46.884;17.410;2023-08-08T11:26:35;22.98;48.51
76291;DHT22;65100;46.884;17.410;2023-08-08T11:29:02;23.10;44.54
76291;DHT22;65100;46.884;17.410;2023-08-08T11:31:28;23.21;44.95
76291;DHT22;65100;46.884;17.410;2023-08-08T11:33:55;23.01;45.26
76291;DHT22;65100;46.884;17.410;2023-08-08T11:36:22;23.25;42.65
76291;DHT22;65100;46.884;17.410;2023-08-08T11:38:48;23.64;42.89
76291;DHT22;65100;46.884;17.410;2023-08-08T11:41:16;23.95;44.76
76291;DHT22;65100;46.884;17.410;2023-08-08T11:43:44;24.08;46.98
76291;DHT22;65100;46.884;17.410;2023-08-08T11:46:12;24.08;41.97
76291;DHT22;65100;46.884;17.410;2023-08-08T11:48:38;24.16;42.57
76291;DHT22;65100;46.884;17.410;2023-08-08T11:51:04;23.99;42.39
76291;DHT22;65100;46.884;17.410;2023-08-08T11:53:30;24.18;42.89
76291;DHT22;65100;46.884;17.410;2023-08-08T11:55:57;24.30;42.35
76291;DHT22;65100;46.884;17.410;2023-08-08T11:58:26;24.29;43.06
76291;DHT22;65100;46.884;17.410;2023-08-08T12:00:52;24.74;42.50
76291;DHT22;65100;46.884;17.410;2023-08-08T12:03:19;24.70;44.34
76291;DHT22;65100;46.884;17.410;2023-08-08T12:05:46;24.79;40.72
76291;DHT22;65100;46.884;17.410;2023-08-08T12:08:12;24.55;42.12
76291;DHT22;65100;46.884;17.410;2023-08-08T12:10:38;23.64;43.82
76291;DHT22;65100;46.884;17.410;2023-08-08T12:13:04;23.84;44.57
76291;DHT22;65100;46.884;17.410;2023-08-08T12:15:35;23.71;42.47
76291;DHT22;65100;46.884;17.410;2023-08-08T12:18:04;23.84;42.75
76291;DHT22;65100;46.884;17.410;2023-08-08T12:20:30;24.15;43.43
76291;DHT22;65100;46.884;17.410;2023-08-08T12:22:59;24.13;43.96
76291;DHT22;65100;46.884;17.410;2023-08-08T12:25:25;24.12;42.30
76291;DHT22;65100;46.884;17.410;2023-08-08T12:27:51;24.23;44.56
76291;DHT22;65100;46.884;17.410;2023-08-08T12:30:16;24.42;40.61
76291;DHT22;65100;46.884;17.410;2023-08-08T12:32:42;24.66;42.32
76291;DHT22;65100;46.884;17.410;2023-08-08T12:35:07;24.72;41.47
76291;DHT22;65100;46.884;17.410;2023-08-08T12:37:33;24.53;41.58
76291;DHT22;65100;46.884;17.410;2023-08-08T12:39:58;24.33;39.00
76291;DHT22;65100;46.884;17.410;2023-08-08T12:42:24;24.06;40.58
76291;DHT22;65100;46.884;17.410;2023-08-08T12:44:50;23.59;41.99
76291;DHT22;65100;46.884;17.410;2023-08-08T12:47:18;23.58;43.70
76291;DHT22;65100;46.884;17.410;2023-08-08T12:49:44;23.59;45.65
76291;DHT22;65100;46.884;17.410;2023-08-08T12:52:10;23.35;42.31
76291;DHT22;65100;46.884;17.410;2023-08-08T12:54:36;23.18;44.58
76291;DHT22;65100;46.884;17.410;2023-08-08T12:57:01;23.38;41.85
76291;DHT22;65100;46.884;17.410;2023-08-08T12:59:27;23.58;42.62
76291;DHT22;65100;46.884;17.410;2023-08-08T13:01:53;23.86;41.76
76291;DHT22;65100;46.884;17.410;2023-08-08T13:04:18;23.78;40.46
76291;DHT22;65100;46.884;17.410;2023-08-08T13:06:44;23.75;44.49
76291;DHT22;65100;46.884;17.410;2023-08-08T13:09:10;23.72;41.87
76291;DHT22;65100;46.884;17.410;2023-08-08T13:11:35;23.58;40.54
76291;DHT22;65100;46.884;17.410;2023-08-08T13:14:01;23.48;42.60
76291;DHT22;65100;46.884;17.410;2023-08-08T13:16:26;23.59;42.09
76291;DHT22;65100;46.884;17.410;2023-08-08T13:18:52;23.71;44.39
76291;DHT22;65100;46.884;17.410;2023-08-08T13:21:17;23.98;43.92
76291;DHT22;65100;46.884;17.410;2023-08-08T13:23:43;23.95;43.44
76291;DHT22;65100;46.884;17.410;2023-08-08T13:26:08;23.76;41.05
76291;DHT22;65100;46.884;17.410;2023-08-08T13:28:33;23.86;40.83
76291;DHT22;65100;46.884;17.410;2023-08-08T13:30:59;23.92;41.28
76291;DHT22;65100;46.884;17.410;2023-08-08T13:33:26;23.72;41.44
76291;DHT22;65100;46.884;17.410;2023-08-08T13:35:51;23.27;43.47
76291;DHT22;65100;46.884;17.410;2023-08-08T13:38:17;23.52;44.95
76291;DHT22;65100;46.884;17.410;2023-08-08T13:40:42;23.71;44.00
76291;DHT22;65100;46.884;17.410;2023-08-08T13:43:08;23.37;43.27
76291;DHT22;65100;46.884;17.410;2023-08-08T13:45:34;23.38;41.62
76291;DHT22;65100;46.884;17.410;2023-08-08T13:47:59;23.18;43.02
76291;DHT22;65100;46.884;17.410;2023-08-08T13:50:25;23.40;43.85
76291;DHT22;65100;46.884;17.410;2023-08-08T13:52:50;23.58;44.24
76291;DHT22;65100;46.884;17.410;2023-08-08T13:55:17;23.66;42.78
76291;DHT22;65100;46.884;17.410;2023-08-08T13:57:43;23.75;43.47
76291;DHT22;65100;46.884;17.410;2023-08-08T14:00:10;23.96;43.62
76291;DHT22;65100;46.884;17.410;2023-08-08T14:02:38;24.33;43.11
76291;DHT22;65100;46.884;17.410;2023-08-08T14:05:04;24.42;39.82
76291;DHT22;65100;46.884;17.410;2023-08-08T14:07:32;24.29;40.35
76291;DHT22;65100;46.884;17.410;2023-08-08T14:09:58;24.42;39.17
76291;DHT22;65100;46.884;17.410;2023-08-08T14:12:24;24.12;42.26
76291;DHT22;65100;46.884;17.410;2023-08-08T14:14:49;24.02;42.71
76291;DHT22;65100;46.884;17.410;2023-08-08T14:17:14;23.98;42.15
76291;DHT22;65100;46.884;17.410;2023-08-08T14:19:40;23.94;43.66
76291;DHT22;65100;46.884;17.410;2023-08-08T14:22:05;24.06;43.03
76291;DHT22;65100;46.884;17.410;2023-08-08T14:24:31;24.02;42.43
76291;DHT22;65100;46.884;17.410;2023-08-08T14:26:56;23.81;40.73
76291;DHT22;65100;46.884;17.410;2023-08-08T14:29:22;23.74;39.77
76291;DHT22;65100;46.884;17.410;2023-08-08T14:31:47;23.81;39.29
76291;DHT22;65100;46.884;17.410;2023-08-08T14:34:14;24.06;42.20
76291;DHT22;65100;46.884;17.410;2023-08-08T14:36:40;24.23;41.04
76291;DHT22;65100;46.884;17.410;2023-08-08T14:39:05;24.08;38.85
76291;DHT22;65100;46.884;17.410;2023-08-08T14:41:32;23.74;39.88
76291;DHT22;65100;46.884;17.410;2023-08-08T14:43:57;23.57;40.25
76291;DHT22;65100;46.884;17.410;2023-08-08T14:46:23;23.55;43.02
76291;DHT22;65100;46.884;17.410;2023-08-08T14:48:49;23.58;43.45
76291;DHT22;65100;46.884;17.410;2023-08-08T14:51:14;23.76;42.69
76291;DHT22;65100;46.884;17.410;2023-08-08T14:53:42;23.94;41.71
76291;DHT22;65100;46.884;17.410;2023-08-08T14:56:08;24.12;41.52
76291;DHT22;65100;46.884;17.410;2023-08-08T14:58:34;24.13;40.73
76291;DHT22;65100;46.884;17.410;2023-08-08T15:01:00;24.16;38.49
76291;DHT22;65100;46.884;17.410;2023-08-08T15:03:26;24.15;42.12
76291;DHT22;65100;46.884;17.410;2023-08-08T15:06:12;24.15;39.41
76291;DHT22;65100;46.884;17.410;2023-08-08T15:08:37;24.22;39.18
76291;DHT22;65100;46.884;17.410;2023-08-08T15:11:03;23.99;39.34